Bea Schulte — VRGA2 — position and weather

sailwx.info

Track history (hours):
 
Tides and Currents Weather Stations Pressure Air Temp Water Temp Dewpoint Dewpoint Depression Visibility Wind Speed Wind Dir Waves Ship Positions

Bea Schulte

Last reported at 2017-Jan-23 06:14 UTC. Time now 2017-Jan-23 12:50 UTC.
Position S 34°44' W 057°45'.

Length 264 m; draft 9 m.

Type: Ship (hazmat cat A). MMSI: 477639500.

Date/timePositionNaut miles runAvg speedWind from/ knotsBaromVisibWave heightAir tempDewpointWater temp
2017-Jan-23 06:14S 34°44' W 057°45'710.7
2017-Jan-23 05:33S 34°42' W 057°54'1615.7
2017-Jan-23 04:34S 34°37' W 058°12'9 1.2
2017-Jan-22 21:33S 34°35' W 058°22'0 0.0
2017-Jan-22 20:33S 34°35' W 058°22'0 0.0
2017-Jan-22 19:33S 34°35' W 058°22'0 0.0
2017-Jan-22 18:03S 34°35' W 058°22'0 0.0
2017-Jan-22 17:33S 34°35' W 058°22'0 0.0
2017-Jan-22 10:15S 34°35' W 058°22'0 0.0
2017-Jan-22 03:24S 34°35' W 058°22'0 0.0
2017-Jan-22 02:33S 34°35' W 058°22'0 0.0
2017-Jan-22 01:33S 34°35' W 058°22'0 0.0
2017-Jan-22 00:33S 34°35' W 058°22'0 0.0
2017-Jan-21 23:33S 34°35' W 058°22'0 0.0
2017-Jan-21 22:33S 34°35' W 058°22'0 0.0
2017-Jan-21 21:33S 34°35' W 058°22'0 0.0
2017-Jan-21 20:24S 34°35' W 058°22'0 0.0
2017-Jan-21 19:33S 34°35' W 058°22'0 0.0
2017-Jan-21 18:33S 34°35' W 058°22'0 0.0
2017-Jan-21 17:33S 34°35' W 058°22'0 0.1
2017-Jan-21 14:33S 34°35' W 058°22'7 6.7
2017-Jan-21 13:33S 34°37' W 058°14'1111.2
2017-Jan-21 12:33S 34°40' W 058°01'1010.4
2017-Jan-21 11:33S 34°44' W 057°50'1010.3
2017-Jan-21 10:33S 34°45' W 057°37'1515.1
2017-Jan-21 09:34S 34°52' W 057°21'1413.6
2017-Jan-21 08:33S 35°02' W 057°10'11013.5
2017-Jan-21 00:24S 35°03' W 054°55'73917.6
2017-Jan-19 06:21S 24°60' W 046°44'1518.7
2017-Jan-19 05:33S 24°46' W 046°38'1918.9
2017-Jan-19 04:33S 24°28' W 046°31'1919.4
2017-Jan-19 03:33S 24°09' W 046°24'1212.0
2017-Jan-19 02:33S 23°59' W 046°18'1 1.5
2017-Jan-19 01:32S 23°58' W 046°18'0 0.0
2017-Jan-19 00:32S 23°58' W 046°18'0 0.0
2017-Jan-18 22:32S 23°58' W 046°18'0 0.0
2017-Jan-18 21:26S 23°58' W 046°18'0 0.0
2017-Jan-18 20:29S 23°58' W 046°18'0 0.0
2017-Jan-18 19:20S 23°58' W 046°18'0 0.0
2017-Jan-18 18:32S 23°58' W 046°18'0 0.0
2017-Jan-18 17:29S 23°58' W 046°18'0 0.0
2017-Jan-18 16:29S 23°58' W 046°18'0 0.0
2017-Jan-18 15:14S 23°58' W 046°18'0 0.0
2017-Jan-18 14:32S 23°58' W 046°18'0 0.0
2017-Jan-18 13:23S 23°58' W 046°18'0 0.0
2017-Jan-18 12:32S 23°58' W 046°18'0 0.0
2017-Jan-18 11:32S 23°58' W 046°18'0 0.0
2017-Jan-18 10:26S 23°58' W 046°18'1 1.2
2017-Jan-18 09:32S 23°59' W 046°17'7 7.5
2017-Jan-18 08:34S 24°05' W 046°22'8 7.9
2017-Jan-18 07:33S 24°12' W 046°20'7 6.9
2017-Jan-18 06:34S 24°16' W 046°14'1010.0
2017-Jan-18 05:34S 24°16' W 046°03'1111.0
2017-Jan-18 04:33S 24°15' W 045°51'1313.1
2017-Jan-18 03:33S 24°16' W 045°36'  
Track history (hours):
 
Tides and Currents Weather Stations Pressure Air Temp Water Temp Dewpoint Dewpoint Depression Visibility Wind Speed Wind Dir Waves Ship Positions

Bea Schulte

Last reported at 2017-Jan-23 06:14 UTC. Time now 2017-Jan-23 12:50 UTC.
Position S 34°44' W 057°45'.

Length 264 m; draft 9 m.

Type: Ship (hazmat cat A). MMSI: 477639500.

Date/timePositionNaut miles runAvg speedWind from/ knotsBaromVisibWave heightAir tempDewpointWater temp
2017-Jan-23 06:14S 34°44' W 057°45'710.7
2017-Jan-23 05:33S 34°42' W 057°54'1615.7
2017-Jan-23 04:34S 34°37' W 058°12'9 1.2
2017-Jan-22 21:33S 34°35' W 058°22'0 0.0
2017-Jan-22 20:33S 34°35' W 058°22'0 0.0
2017-Jan-22 19:33S 34°35' W 058°22'0 0.0
2017-Jan-22 18:03S 34°35' W 058°22'0 0.0
2017-Jan-22 17:33S 34°35' W 058°22'0 0.0
2017-Jan-22 10:15S 34°35' W 058°22'0 0.0
2017-Jan-22 03:24S 34°35' W 058°22'0 0.0
2017-Jan-22 02:33S 34°35' W 058°22'0 0.0
2017-Jan-22 01:33S 34°35' W 058°22'0 0.0
2017-Jan-22 00:33S 34°35' W 058°22'0 0.0
2017-Jan-21 23:33S 34°35' W 058°22'0 0.0
2017-Jan-21 22:33S 34°35' W 058°22'0 0.0
2017-Jan-21 21:33S 34°35' W 058°22'0 0.0
2017-Jan-21 20:24S 34°35' W 058°22'0 0.0
2017-Jan-21 19:33S 34°35' W 058°22'0 0.0
2017-Jan-21 18:33S 34°35' W 058°22'0 0.0
2017-Jan-21 17:33S 34°35' W 058°22'0 0.1
2017-Jan-21 14:33S 34°35' W 058°22'7 6.7
2017-Jan-21 13:33S 34°37' W 058°14'1111.2
2017-Jan-21 12:33S 34°40' W 058°01'1010.4
2017-Jan-21 11:33S 34°44' W 057°50'1010.3
2017-Jan-21 10:33S 34°45' W 057°37'1515.1
2017-Jan-21 09:34S 34°52' W 057°21'1413.6
2017-Jan-21 08:33S 35°02' W 057°10'11013.5
2017-Jan-21 00:24S 35°03' W 054°55'73917.6
2017-Jan-19 06:21S 24°60' W 046°44'1518.7
2017-Jan-19 05:33S 24°46' W 046°38'1918.9
2017-Jan-19 04:33S 24°28' W 046°31'1919.4
2017-Jan-19 03:33S 24°09' W 046°24'1212.0
2017-Jan-19 02:33S 23°59' W 046°18'1 1.5
2017-Jan-19 01:32S 23°58' W 046°18'0 0.0
2017-Jan-19 00:32S 23°58' W 046°18'0 0.0
2017-Jan-18 22:32S 23°58' W 046°18'0 0.0
2017-Jan-18 21:26S 23°58' W 046°18'0 0.0
2017-Jan-18 20:29S 23°58' W 046°18'0 0.0
2017-Jan-18 19:20S 23°58' W 046°18'0 0.0
2017-Jan-18 18:32S 23°58' W 046°18'0 0.0
2017-Jan-18 17:29S 23°58' W 046°18'0 0.0
2017-Jan-18 16:29S 23°58' W 046°18'0 0.0
2017-Jan-18 15:14S 23°58' W 046°18'0 0.0
2017-Jan-18 14:32S 23°58' W 046°18'0 0.0
2017-Jan-18 13:23S 23°58' W 046°18'0 0.0
2017-Jan-18 12:32S 23°58' W 046°18'0 0.0
2017-Jan-18 11:32S 23°58' W 046°18'0 0.0
2017-Jan-18 10:26S 23°58' W 046°18'1 1.2
2017-Jan-18 09:32S 23°59' W 046°17'7 7.5
2017-Jan-18 08:34S 24°05' W 046°22'8 7.9
2017-Jan-18 07:33S 24°12' W 046°20'7 6.9
2017-Jan-18 06:34S 24°16' W 046°14'1010.0
2017-Jan-18 05:34S 24°16' W 046°03'1111.0
2017-Jan-18 04:33S 24°15' W 045°51'1313.1
2017-Jan-18 03:33S 24°16' W 045°36'  

Dump ship's entire track history